sensor_id;sensor_type;location;lat;lon;timestamp;temperature;humidity
2441;DHT22;1231;53.988;9.470;2023-02-26T00:00:20;0.50;83.00
2441;DHT22;1231;53.988;9.470;2023-02-26T00:03:11;0.60;82.70
2441;DHT22;1231;53.988;9.470;2023-02-26T00:06:02;0.70;82.50
2441;DHT22;1231;53.988;9.470;2023-02-26T00:08:54;0.80;82.20
2441;DHT22;1231;53.988;9.470;2023-02-26T00:11:45;0.90;81.90
2441;DHT22;1231;53.988;9.470;2023-02-26T00:14:37;0.90;81.60
2441;DHT22;1231;53.988;9.470;2023-02-26T00:18:01;0.90;81.20
2441;DHT22;1231;53.988;9.470;2023-02-26T00:20:53;1.00;81.00
2441;DHT22;1231;53.988;9.470;2023-02-26T00:23:44;1.00;80.80
2441;DHT22;1231;53.988;9.470;2023-02-26T00:26:35;1.10;80.50
2441;DHT22;1231;53.988;9.470;2023-02-26T00:29:27;1.10;80.40
2441;DHT22;1231;53.988;9.470;2023-02-26T00:32:18;1.20;80.40
2441;DHT22;1231;53.988;9.470;2023-02-26T00:35:13;1.20;80.20
2441;DHT22;1231;53.988;9.470;2023-02-26T00:38:06;1.30;80.20
2441;DHT22;1231;53.988;9.470;2023-02-26T00:40:59;1.30;80.00
2441;DHT22;1231;53.988;9.470;2023-02-26T00:43:50;1.30;79.80
2441;DHT22;1231;53.988;9.470;2023-02-26T00:46:55;1.30;79.60
2441;DHT22;1231;53.988;9.470;2023-02-26T00:53:03;1.20;79.20
2441;DHT22;1231;53.988;9.470;2023-02-26T00:55:58;1.20;79.00
2441;DHT22;1231;53.988;9.470;2023-02-26T00:58:49;1.10;79.00
2441;DHT22;1231;53.988;9.470;2023-02-26T01:01:40;1.00;78.90
2441;DHT22;1231;53.988;9.470;2023-02-26T01:04:31;0.90;78.80
2441;DHT22;1231;53.988;9.470;2023-02-26T01:07:22;0.80;78.70
2441;DHT22;1231;53.988;9.470;2023-02-26T01:10:14;0.80;78.60
2441;DHT22;1231;53.988;9.470;2023-02-26T01:13:06;0.70;78.60
2441;DHT22;1231;53.988;9.470;2023-02-26T01:16:04;0.60;78.50
2441;DHT22;1231;53.988;9.470;2023-02-26T01:22:14;0.50;78.00
2441;DHT22;1231;53.988;9.470;2023-02-26T01:25:29;0.50;77.90
2441;DHT22;1231;53.988;9.470;2023-02-26T01:28:18;0.40;77.90
2441;DHT22;1231;53.988;9.470;2023-02-26T01:31:17;0.40;78.00
2441;DHT22;1231;53.988;9.470;2023-02-26T01:34:31;0.40;78.10
2441;DHT22;1231;53.988;9.470;2023-02-26T01:37:46;0.30;78.10
2441;DHT22;1231;53.988;9.470;2023-02-26T01:41:14;0.30;77.90
2441;DHT22;1231;53.988;9.470;2023-02-26T01:47:25;0.30;77.70
2441;DHT22;1231;53.988;9.470;2023-02-26T01:50:21;0.30;77.40
2441;DHT22;1231;53.988;9.470;2023-02-26T01:53:24;0.20;77.30
2441;DHT22;1231;53.988;9.470;2023-02-26T01:56:17;0.20;77.40
2441;DHT22;1231;53.988;9.470;2023-02-26T01:59:11;0.10;77.30
2441;DHT22;1231;53.988;9.470;2023-02-26T02:02:05;0.10;77.40
2441;DHT22;1231;53.988;9.470;2023-02-26T02:04:57;0.10;77.40
2441;DHT22;1231;53.988;9.470;2023-02-26T02:07:53;0.00;77.20
2441;DHT22;1231;53.988;9.470;2023-02-26T02:10:47;0.00;77.20
2441;DHT22;1231;53.988;9.470;2023-02-26T02:13:50;-0.10;77.10
2441;DHT22;1231;53.988;9.470;2023-02-26T02:17:02;-0.10;77.00
2441;DHT22;1231;53.988;9.470;2023-02-26T02:20:34;-0.20;77.00
2441;DHT22;1231;53.988;9.470;2023-02-26T02:23:46;-0.20;77.20
2441;DHT22;1231;53.988;9.470;2023-02-26T02:30:24;-0.30;77.30
2441;DHT22;1231;53.988;9.470;2023-02-26T02:33:21;-0.30;77.40
2441;DHT22;1231;53.988;9.470;2023-02-26T02:36:21;-0.30;77.40
2441;DHT22;1231;53.988;9.470;2023-02-26T02:39:30;-0.20;77.50
2441;DHT22;1231;53.988;9.470;2023-02-26T02:42:32;-0.20;77.40
2441;DHT22;1231;53.988;9.470;2023-02-26T02:45:42;-0.20;77.30
2441;DHT22;1231;53.988;9.470;2023-02-26T02:48:48;-0.30;77.30
2441;DHT22;1231;53.988;9.470;2023-02-26T02:51:47;-0.30;77.20
2441;DHT22;1231;53.988;9.470;2023-02-26T02:54:48;-0.30;77.10
2441;DHT22;1231;53.988;9.470;2023-02-26T02:57:46;-0.30;77.00
2441;DHT22;1231;53.988;9.470;2023-02-26T03:00:51;-0.30;77.00
2441;DHT22;1231;53.988;9.470;2023-02-26T03:03:56;-0.30;77.00
2441;DHT22;1231;53.988;9.470;2023-02-26T03:06:48;-0.40;76.90
2441;DHT22;1231;53.988;9.470;2023-02-26T03:09:39;-0.40;76.80
2441;DHT22;1231;53.988;9.470;2023-02-26T03:12:31;-0.40;76.90
2441;DHT22;1231;53.988;9.470;2023-02-26T03:15:36;-0.40;77.00
2441;DHT22;1231;53.988;9.470;2023-02-26T03:28:26;-0.60;77.20
2441;DHT22;1231;53.988;9.470;2023-02-26T03:31:26;-0.60;77.20
2441;DHT22;1231;53.988;9.470;2023-02-26T03:34:40;-0.60;77.20
2441;DHT22;1231;53.988;9.470;2023-02-26T03:37:53;-0.60;77.20
2441;DHT22;1231;53.988;9.470;2023-02-26T03:40:50;-0.60;77.10
2441;DHT22;1231;53.988;9.470;2023-02-26T03:44:12;-0.60;77.10
2441;DHT22;1231;53.988;9.470;2023-02-26T03:47:07;-0.60;76.70
2441;DHT22;1231;53.988;9.470;2023-02-26T03:51:06;-0.60;76.60
2441;DHT22;1231;53.988;9.470;2023-02-26T03:53:35;-0.60;76.40
2441;DHT22;1231;53.988;9.470;2023-02-26T03:56:50;-0.60;76.20
2441;DHT22;1231;53.988;9.470;2023-02-26T03:59:41;-0.60;76.00
2441;DHT22;1231;53.988;9.470;2023-02-26T04:02:54;-0.60;75.90
2441;DHT22;1231;53.988;9.470;2023-02-26T04:05:49;-0.60;75.70
2441;DHT22;1231;53.988;9.470;2023-02-26T04:08:42;-0.60;75.50
2441;DHT22;1231;53.988;9.470;2023-02-26T04:11:34;-0.60;75.40
2441;DHT22;1231;53.988;9.470;2023-02-26T04:14:26;-0.60;75.30
2441;DHT22;1231;53.988;9.470;2023-02-26T04:17:17;-0.60;75.10
2441;DHT22;1231;53.988;9.470;2023-02-26T04:20:08;-0.60;75.00
2441;DHT22;1231;53.988;9.470;2023-02-26T04:23:00;-0.60;74.80
2441;DHT22;1231;53.988;9.470;2023-02-26T04:25:51;-0.60;74.60
2441;DHT22;1231;53.988;9.470;2023-02-26T04:28:42;-0.60;74.80
2441;DHT22;1231;53.988;9.470;2023-02-26T04:31:33;-0.60;74.60
2441;DHT22;1231;53.988;9.470;2023-02-26T04:34:24;-0.60;74.80
2441;DHT22;1231;53.988;9.470;2023-02-26T04:37:15;-0.60;74.80
2441;DHT22;1231;53.988;9.470;2023-02-26T04:40:06;-0.60;74.80
2441;DHT22;1231;53.988;9.470;2023-02-26T04:42:57;-0.60;74.90
2441;DHT22;1231;53.988;9.470;2023-02-26T04:45:48;-0.60;74.90
2441;DHT22;1231;53.988;9.470;2023-02-26T04:48:39;-0.50;74.90
2441;DHT22;1231;53.988;9.470;2023-02-26T04:51:30;-0.50;74.80
2441;DHT22;1231;53.988;9.470;2023-02-26T04:54:21;-0.60;74.60
2441;DHT22;1231;53.988;9.470;2023-02-26T04:57:12;-0.60;74.50
2441;DHT22;1231;53.988;9.470;2023-02-26T05:00:03;-0.70;75.00
2441;DHT22;1231;53.988;9.470;2023-02-26T05:02:57;-0.70;75.30
2441;DHT22;1231;53.988;9.470;2023-02-26T05:05:47;-0.60;75.30
2441;DHT22;1231;53.988;9.470;2023-02-26T05:08:38;-0.60;75.30
2441;DHT22;1231;53.988;9.470;2023-02-26T05:11:32;-0.60;75.40
2441;DHT22;1231;53.988;9.470;2023-02-26T05:14:23;-0.60;75.50
2441;DHT22;1231;53.988;9.470;2023-02-26T05:17:14;-0.60;75.60
2441;DHT22;1231;53.988;9.470;2023-02-26T05:20:06;-0.50;75.70
2441;DHT22;1231;53.988;9.470;2023-02-26T05:22:59;-0.50;75.80
2441;DHT22;1231;53.988;9.470;2023-02-26T05:25:50;-0.40;75.80
2441;DHT22;1231;53.988;9.470;2023-02-26T05:28:41;-0.40;75.70
2441;DHT22;1231;53.988;9.470;2023-02-26T05:31:35;-0.40;75.80
2441;DHT22;1231;53.988;9.470;2023-02-26T05:34:26;-0.30;75.80
2441;DHT22;1231;53.988;9.470;2023-02-26T05:37:17;-0.30;75.70
2441;DHT22;1231;53.988;9.470;2023-02-26T05:40:08;-0.30;75.70
2441;DHT22;1231;53.988;9.470;2023-02-26T05:43:02;-0.30;75.80
2441;DHT22;1231;53.988;9.470;2023-02-26T05:45:54;-0.30;75.70
2441;DHT22;1231;53.988;9.470;2023-02-26T05:48:45;-0.20;75.60
2441;DHT22;1231;53.988;9.470;2023-02-26T05:51:36;-0.20;75.60
2441;DHT22;1231;53.988;9.470;2023-02-26T05:54:27;-0.20;75.60
2441;DHT22;1231;53.988;9.470;2023-02-26T05:57:17;-0.20;75.50
2441;DHT22;1231;53.988;9.470;2023-02-26T06:00:09;-0.20;75.40
2441;DHT22;1231;53.988;9.470;2023-02-26T06:03:00;-0.20;75.30
2441;DHT22;1231;53.988;9.470;2023-02-26T06:05:51;-0.20;75.00
2441;DHT22;1231;53.988;9.470;2023-02-26T06:08:45;-0.20;74.80
2441;DHT22;1231;53.988;9.470;2023-02-26T06:11:36;-0.10;74.90
2441;DHT22;1231;53.988;9.470;2023-02-26T06:14:29;-0.10;75.00
2441;DHT22;1231;53.988;9.470;2023-02-26T06:17:20;0.00;74.90
2441;DHT22;1231;53.988;9.470;2023-02-26T06:20:11;0.00;74.90
2441;DHT22;1231;53.988;9.470;2023-02-26T06:23:02;0.00;74.90
2441;DHT22;1231;53.988;9.470;2023-02-26T06:25:53;0.00;75.00
2441;DHT22;1231;53.988;9.470;2023-02-26T06:28:44;0.00;75.10
2441;DHT22;1231;53.988;9.470;2023-02-26T06:31:35;0.00;75.20
2441;DHT22;1231;53.988;9.470;2023-02-26T06:34:26;0.00;75.20
2441;DHT22;1231;53.988;9.470;2023-02-26T06:37:17;0.00;75.20
2441;DHT22;1231;53.988;9.470;2023-02-26T06:40:08;0.00;75.20
2441;DHT22;1231;53.988;9.470;2023-02-26T06:43:00;0.10;75.20
2441;DHT22;1231;53.988;9.470;2023-02-26T06:45:51;0.10;75.40
2441;DHT22;1231;53.988;9.470;2023-02-26T06:48:42;0.10;75.40
2441;DHT22;1231;53.988;9.470;2023-02-26T06:51:33;0.10;75.30
2441;DHT22;1231;53.988;9.470;2023-02-26T06:54:24;0.10;75.40
2441;DHT22;1231;53.988;9.470;2023-02-26T06:57:14;0.20;75.50
2441;DHT22;1231;53.988;9.470;2023-02-26T07:00:06;0.20;75.20
2441;DHT22;1231;53.988;9.470;2023-02-26T07:02:57;0.20;75.20
2441;DHT22;1231;53.988;9.470;2023-02-26T07:05:49;0.30;75.40
2441;DHT22;1231;53.988;9.470;2023-02-26T07:08:40;0.40;75.10
2441;DHT22;1231;53.988;9.470;2023-02-26T07:11:31;0.50;75.00
2441;DHT22;1231;53.988;9.470;2023-02-26T07:14:21;0.50;74.90
2441;DHT22;1231;53.988;9.470;2023-02-26T07:17:12;0.50;74.80
2441;DHT22;1231;53.988;9.470;2023-02-26T07:20:10;0.50;74.80
2441;DHT22;1231;53.988;9.470;2023-02-26T07:23:01;0.60;74.80
2441;DHT22;1231;53.988;9.470;2023-02-26T07:25:52;0.60;74.80
2441;DHT22;1231;53.988;9.470;2023-02-26T07:28:43;0.70;74.90
2441;DHT22;1231;53.988;9.470;2023-02-26T07:31:34;0.80;74.90
2441;DHT22;1231;53.988;9.470;2023-02-26T07:34:26;0.90;74.90
2441;DHT22;1231;53.988;9.470;2023-02-26T07:37:17;1.00;74.90
2441;DHT22;1231;53.988;9.470;2023-02-26T07:40:09;1.20;74.80
2441;DHT22;1231;53.988;9.470;2023-02-26T07:43:00;1.40;74.60
2441;DHT22;1231;53.988;9.470;2023-02-26T07:45:51;1.50;74.40
2441;DHT22;1231;53.988;9.470;2023-02-26T07:48:42;1.60;74.20
2441;DHT22;1231;53.988;9.470;2023-02-26T07:51:33;1.70;74.00
2441;DHT22;1231;53.988;9.470;2023-02-26T07:54:24;1.80;73.80
2441;DHT22;1231;53.988;9.470;2023-02-26T07:57:15;1.80;73.50
2441;DHT22;1231;53.988;9.470;2023-02-26T08:00:07;1.80;73.50
2441;DHT22;1231;53.988;9.470;2023-02-26T08:02:58;1.80;73.50
2441;DHT22;1231;53.988;9.470;2023-02-26T08:05:49;1.90;73.80
2441;DHT22;1231;53.988;9.470;2023-02-26T08:08:39;2.00;73.80
2441;DHT22;1231;53.988;9.470;2023-02-26T08:11:30;2.10;73.70
2441;DHT22;1231;53.988;9.470;2023-02-26T08:14:29;2.20;73.80
2441;DHT22;1231;53.988;9.470;2023-02-26T08:17:20;2.40;73.90
2441;DHT22;1231;53.988;9.470;2023-02-26T08:20:11;2.70;73.40
2441;DHT22;1231;53.988;9.470;2023-02-26T08:23:04;3.00;73.00
2441;DHT22;1231;53.988;9.470;2023-02-26T08:26:02;3.20;72.30
2441;DHT22;1231;53.988;9.470;2023-02-26T08:28:54;3.30;71.50
2441;DHT22;1231;53.988;9.470;2023-02-26T08:31:45;3.30;71.30
2441;DHT22;1231;53.988;9.470;2023-02-26T08:34:36;3.40;71.20
2441;DHT22;1231;53.988;9.470;2023-02-26T08:37:27;3.40;70.70
2441;DHT22;1231;53.988;9.470;2023-02-26T08:40:18;3.30;70.70
2441;DHT22;1231;53.988;9.470;2023-02-26T08:43:09;3.30;70.60
2441;DHT22;1231;53.988;9.470;2023-02-26T08:46:01;3.30;70.60
2441;DHT22;1231;53.988;9.470;2023-02-26T08:48:52;3.30;70.70
2441;DHT22;1231;53.988;9.470;2023-02-26T08:51:43;3.30;70.90
2441;DHT22;1231;53.988;9.470;2023-02-26T08:54:34;3.30;70.90
2441;DHT22;1231;53.988;9.470;2023-02-26T08:57:25;3.30;71.00
2441;DHT22;1231;53.988;9.470;2023-02-26T09:00:16;3.40;71.10
2441;DHT22;1231;53.988;9.470;2023-02-26T09:03:08;3.50;71.00
2441;DHT22;1231;53.988;9.470;2023-02-26T09:05:59;3.70;71.20
2441;DHT22;1231;53.988;9.470;2023-02-26T09:08:50;3.90;70.70
2441;DHT22;1231;53.988;9.470;2023-02-26T09:11:41;4.10;70.60
2441;DHT22;1231;53.988;9.470;2023-02-26T09:14:32;4.10;69.50
2441;DHT22;1231;53.988;9.470;2023-02-26T09:17:23;4.30;69.30
2441;DHT22;1231;53.988;9.470;2023-02-26T09:20:15;4.40;69.50
2441;DHT22;1231;53.988;9.470;2023-02-26T09:23:06;4.50;69.00
2441;DHT22;1231;53.988;9.470;2023-02-26T09:25:57;4.50;68.40
2441;DHT22;1231;53.988;9.470;2023-02-26T09:28:48;4.50;68.80
2441;DHT22;1231;53.988;9.470;2023-02-26T09:31:39;4.60;68.40
2441;DHT22;1231;53.988;9.470;2023-02-26T09:34:30;4.60;68.00
2441;DHT22;1231;53.988;9.470;2023-02-26T09:37:21;4.60;68.60
2441;DHT22;1231;53.988;9.470;2023-02-26T09:46:50;4.80;68.30
2441;DHT22;1231;53.988;9.470;2023-02-26T09:50:15;4.70;68.10
2441;DHT22;1231;53.988;9.470;2023-02-26T09:56:16;4.50;68.00
2441;DHT22;1231;53.988;9.470;2023-02-26T09:59:09;4.40;68.20
2441;DHT22;1231;53.988;9.470;2023-02-26T10:02:03;4.40;68.40
2441;DHT22;1231;53.988;9.470;2023-02-26T10:08:14;4.50;69.20
2441;DHT22;1231;53.988;9.470;2023-02-26T10:11:22;4.70;69.70
2441;DHT22;1231;53.988;9.470;2023-02-26T10:18:07;5.00;68.00
2441;DHT22;1231;53.988;9.470;2023-02-26T10:21:10;5.10;67.50
2441;DHT22;1231;53.988;9.470;2023-02-26T10:24:10;5.10;67.30
2441;DHT22;1231;53.988;9.470;2023-02-26T10:27:10;5.10;67.20
2441;DHT22;1231;53.988;9.470;2023-02-26T10:30:20;5.10;67.20
2441;DHT22;1231;53.988;9.470;2023-02-26T10:33:26;5.10;67.10
2441;DHT22;1231;53.988;9.470;2023-02-26T10:36:28;5.00;66.40
2441;DHT22;1231;53.988;9.470;2023-02-26T10:39:32;4.90;66.80
2441;DHT22;1231;53.988;9.470;2023-02-26T10:42:29;4.90;67.20
2441;DHT22;1231;53.988;9.470;2023-02-26T10:51:27;5.00;67.30
2441;DHT22;1231;53.988;9.470;2023-02-26T10:54:32;5.10;67.40
2441;DHT22;1231;53.988;9.470;2023-02-26T10:57:29;5.30;67.50
2441;DHT22;1231;53.988;9.470;2023-02-26T11:00:22;5.60;66.50
2441;DHT22;1231;53.988;9.470;2023-02-26T11:03:18;5.80;65.40
2441;DHT22;1231;53.988;9.470;2023-02-26T11:06:13;5.90;65.00
2441;DHT22;1231;53.988;9.470;2023-02-26T11:15:02;5.80;64.50
2441;DHT22;1231;53.988;9.470;2023-02-26T11:17:57;5.80;63.80
2441;DHT22;1231;53.988;9.470;2023-02-26T11:20:53;5.80;63.90
2441;DHT22;1231;53.988;9.470;2023-02-26T11:23:45;5.80;64.50
2441;DHT22;1231;53.988;9.470;2023-02-26T11:26:38;5.80;64.00
2441;DHT22;1231;53.988;9.470;2023-02-26T11:29:40;5.80;64.00
2441;DHT22;1231;53.988;9.470;2023-02-26T11:32:35;6.00;64.50
2441;DHT22;1231;53.988;9.470;2023-02-26T11:35:26;6.20;64.20
2441;DHT22;1231;53.988;9.470;2023-02-26T11:38:21;6.20;63.30
2441;DHT22;1231;53.988;9.470;2023-02-26T11:41:15;6.20;62.80
2441;DHT22;1231;53.988;9.470;2023-02-26T11:44:10;6.20;63.30
2441;DHT22;1231;53.988;9.470;2023-02-26T11:47:08;6.10;63.70
2441;DHT22;1231;53.988;9.470;2023-02-26T11:50:04;6.20;63.60
2441;DHT22;1231;53.988;9.470;2023-02-26T11:53:05;6.10;63.30
2441;DHT22;1231;53.988;9.470;2023-02-26T11:56:24;6.10;63.20
2441;DHT22;1231;53.988;9.470;2023-02-26T11:59:21;6.10;62.90
2441;DHT22;1231;53.988;9.470;2023-02-26T12:02:13;6.00;62.90
2441;DHT22;1231;53.988;9.470;2023-02-26T12:05:06;6.00;62.70
2441;DHT22;1231;53.988;9.470;2023-02-26T12:07:57;6.10;63.20
2441;DHT22;1231;53.988;9.470;2023-02-26T12:14:11;6.30;62.70
2441;DHT22;1231;53.988;9.470;2023-02-26T12:24:30;6.00;62.10
2441;DHT22;1231;53.988;9.470;2023-02-26T12:27:38;6.20;61.60
2441;DHT22;1231;53.988;9.470;2023-02-26T12:33:58;7.00;60.70
2441;DHT22;1231;53.988;9.470;2023-02-26T12:37:42;7.10;60.20
2441;DHT22;1231;53.988;9.470;2023-02-26T12:40:42;7.00;58.90
2441;DHT22;1231;53.988;9.470;2023-02-26T12:46:37;6.70;58.00
2441;DHT22;1231;53.988;9.470;2023-02-26T12:49:45;6.40;58.30
2441;DHT22;1231;53.988;9.470;2023-02-26T12:53:03;6.30;59.20
2441;DHT22;1231;53.988;9.470;2023-02-26T12:56:12;6.50;59.50
2441;DHT22;1231;53.988;9.470;2023-02-26T12:59:57;6.80;58.20
2441;DHT22;1231;53.988;9.470;2023-02-26T13:02:40;6.70;57.50
2441;DHT22;1231;53.988;9.470;2023-02-26T13:09:28;6.20;59.20
2441;DHT22;1231;53.988;9.470;2023-02-26T13:12:24;6.00;58.10
2441;DHT22;1231;53.988;9.470;2023-02-26T13:15:36;6.00;57.40
2441;DHT22;1231;53.988;9.470;2023-02-26T13:21:35;6.40;57.20
2441;DHT22;1231;53.988;9.470;2023-02-26T13:24:38;6.80;57.40
2441;DHT22;1231;53.988;9.470;2023-02-26T13:27:37;6.70;56.70
2441;DHT22;1231;53.988;9.470;2023-02-26T13:30:43;6.70;56.50
2441;DHT22;1231;53.988;9.470;2023-02-26T13:33:38;6.60;56.50
2441;DHT22;1231;53.988;9.470;2023-02-26T13:36:30;6.30;56.90
2441;DHT22;1231;53.988;9.470;2023-02-26T13:39:43;6.10;57.70
2441;DHT22;1231;53.988;9.470;2023-02-26T13:43:03;6.20;57.50
2441;DHT22;1231;53.988;9.470;2023-02-26T13:49:38;6.50;57.00
2441;DHT22;1231;53.988;9.470;2023-02-26T13:52:52;6.80;57.90
2441;DHT22;1231;53.988;9.470;2023-02-26T13:55:46;6.50;57.00
2441;DHT22;1231;53.988;9.470;2023-02-26T13:58:40;6.10;57.50
2441;DHT22;1231;53.988;9.470;2023-02-26T14:04:58;6.10;58.80
2441;DHT22;1231;53.988;9.470;2023-02-26T14:08:09;6.50;57.80
2441;DHT22;1231;53.988;9.470;2023-02-26T14:11:27;6.60;57.50
2441;DHT22;1231;53.988;9.470;2023-02-26T14:20:23;5.70;58.30
2441;DHT22;1231;53.988;9.470;2023-02-26T14:23:35;5.70;58.90
2441;DHT22;1231;53.988;9.470;2023-02-26T14:26:30;5.80;59.10
2441;DHT22;1231;53.988;9.470;2023-02-26T14:29:36;6.00;59.20
2441;DHT22;1231;53.988;9.470;2023-02-26T14:32:47;6.10;57.80
2441;DHT22;1231;53.988;9.470;2023-02-26T14:35:47;6.20;57.20
2441;DHT22;1231;53.988;9.470;2023-02-26T14:38:41;6.30;56.20
2441;DHT22;1231;53.988;9.470;2023-02-26T14:41:37;6.20;56.30
2441;DHT22;1231;53.988;9.470;2023-02-26T14:44:36;6.10;57.00
2441;DHT22;1231;53.988;9.470;2023-02-26T14:47:28;6.10;57.20
2441;DHT22;1231;53.988;9.470;2023-02-26T14:50:20;6.10;56.90
2441;DHT22;1231;53.988;9.470;2023-02-26T14:59:57;6.20;56.70
2441;DHT22;1231;53.988;9.470;2023-02-26T15:25:07;5.60;58.50
2441;DHT22;1231;53.988;9.470;2023-02-26T15:28:08;5.60;58.90
2441;DHT22;1231;53.988;9.470;2023-02-26T15:31:01;5.60;59.10
2441;DHT22;1231;53.988;9.470;2023-02-26T15:33:55;5.70;59.20
2441;DHT22;1231;53.988;9.470;2023-02-26T15:36:49;5.70;59.30
2441;DHT22;1231;53.988;9.470;2023-02-26T15:39:40;5.80;59.60
2441;DHT22;1231;53.988;9.470;2023-02-26T15:42:34;5.80;59.80
2441;DHT22;1231;53.988;9.470;2023-02-26T15:45:40;5.80;60.30
2441;DHT22;1231;53.988;9.470;2023-02-26T15:48:35;5.80;60.30
2441;DHT22;1231;53.988;9.470;2023-02-26T15:51:28;5.80;60.20
2441;DHT22;1231;53.988;9.470;2023-02-26T15:54:21;5.70;60.50
2441;DHT22;1231;53.988;9.470;2023-02-26T15:57:14;5.60;61.10
2441;DHT22;1231;53.988;9.470;2023-02-26T16:00:14;5.60;61.00
2441;DHT22;1231;53.988;9.470;2023-02-26T16:03:08;5.50;60.90
2441;DHT22;1231;53.988;9.470;2023-02-26T16:05:59;5.50;61.10
2441;DHT22;1231;53.988;9.470;2023-02-26T16:08:50;5.40;60.60
2441;DHT22;1231;53.988;9.470;2023-02-26T16:11:42;5.20;60.50
2441;DHT22;1231;53.988;9.470;2023-02-26T16:14:40;5.10;60.80
2441;DHT22;1231;53.988;9.470;2023-02-26T16:17:37;5.10;61.10
2441;DHT22;1231;53.988;9.470;2023-02-26T16:20:43;5.00;61.50
2441;DHT22;1231;53.988;9.470;2023-02-26T16:23:44;5.00;61.70
2441;DHT22;1231;53.988;9.470;2023-02-26T16:26:50;4.90;62.00
2441;DHT22;1231;53.988;9.470;2023-02-26T16:29:49;4.90;62.20
2441;DHT22;1231;53.988;9.470;2023-02-26T16:32:40;4.80;62.30
2441;DHT22;1231;53.988;9.470;2023-02-26T16:35:33;4.80;62.50
2441;DHT22;1231;53.988;9.470;2023-02-26T16:38:31;4.70;62.70
2441;DHT22;1231;53.988;9.470;2023-02-26T16:41:24;4.70;62.90
2441;DHT22;1231;53.988;9.470;2023-02-26T16:44:35;4.60;63.10
2441;DHT22;1231;53.988;9.470;2023-02-26T16:47:29;4.50;63.20
2441;DHT22;1231;53.988;9.470;2023-02-26T16:50:24;4.40;63.50
2441;DHT22;1231;53.988;9.470;2023-02-26T16:53:18;4.30;63.70
2441;DHT22;1231;53.988;9.470;2023-02-26T16:56:12;4.20;64.00
2441;DHT22;1231;53.988;9.470;2023-02-26T16:59:20;4.10;64.30
2441;DHT22;1231;53.988;9.470;2023-02-26T17:02:18;4.00;64.60
2441;DHT22;1231;53.988;9.470;2023-02-26T17:05:24;3.90;64.90
2441;DHT22;1231;53.988;9.470;2023-02-26T17:08:18;3.70;65.40
2441;DHT22;1231;53.988;9.470;2023-02-26T17:11:28;3.60;65.60
2441;DHT22;1231;53.988;9.470;2023-02-26T17:14:26;3.60;65.80
2441;DHT22;1231;53.988;9.470;2023-02-26T17:17:18;3.50;66.00
2441;DHT22;1231;53.988;9.470;2023-02-26T17:20:10;3.40;66.10
2441;DHT22;1231;53.988;9.470;2023-02-26T17:23:02;3.40;66.10
2441;DHT22;1231;53.988;9.470;2023-02-26T17:25:55;3.40;66.10
2441;DHT22;1231;53.988;9.470;2023-02-26T17:28:46;3.30;66.20
2441;DHT22;1231;53.988;9.470;2023-02-26T17:31:37;3.20;66.50
2441;DHT22;1231;53.988;9.470;2023-02-26T17:34:33;3.10;66.70
2441;DHT22;1231;53.988;9.470;2023-02-26T17:37:29;3.10;66.90
2441;DHT22;1231;53.988;9.470;2023-02-26T17:40:29;3.00;67.20
2441;DHT22;1231;53.988;9.470;2023-02-26T17:43:22;2.90;67.50
2441;DHT22;1231;53.988;9.470;2023-02-26T17:46:13;2.80;67.80
2441;DHT22;1231;53.988;9.470;2023-02-26T17:49:04;2.80;68.00
2441;DHT22;1231;53.988;9.470;2023-02-26T17:51:55;2.80;68.00
2441;DHT22;1231;53.988;9.470;2023-02-26T17:54:46;2.80;68.10
2441;DHT22;1231;53.988;9.470;2023-02-26T17:57:37;2.70;68.30
2441;DHT22;1231;53.988;9.470;2023-02-26T18:00:28;2.70;68.40
2441;DHT22;1231;53.988;9.470;2023-02-26T18:03:20;2.70;68.50
2441;DHT22;1231;53.988;9.470;2023-02-26T18:06:13;2.70;68.50
2441;DHT22;1231;53.988;9.470;2023-02-26T18:09:04;2.70;68.30
2441;DHT22;1231;53.988;9.470;2023-02-26T18:11:55;2.60;68.60
2441;DHT22;1231;53.988;9.470;2023-02-26T18:14:47;2.50;68.80
2441;DHT22;1231;53.988;9.470;2023-02-26T18:17:38;2.40;68.90
2441;DHT22;1231;53.988;9.470;2023-02-26T18:20:29;2.30;69.20
2441;DHT22;1231;53.988;9.470;2023-02-26T18:23:20;2.20;69.80
2441;DHT22;1231;53.988;9.470;2023-02-26T18:26:12;2.00;70.20
2441;DHT22;1231;53.988;9.470;2023-02-26T18:29:04;1.90;70.60
2441;DHT22;1231;53.988;9.470;2023-02-26T18:31:55;1.80;71.20
2441;DHT22;1231;53.988;9.470;2023-02-26T18:34:48;1.70;71.70
2441;DHT22;1231;53.988;9.470;2023-02-26T18:37:40;1.60;72.10
2441;DHT22;1231;53.988;9.470;2023-02-26T18:40:31;1.60;72.40
2441;DHT22;1231;53.988;9.470;2023-02-26T18:43:22;1.50;72.60
2441;DHT22;1231;53.988;9.470;2023-02-26T18:46:13;1.40;73.00
2441;DHT22;1231;53.988;9.470;2023-02-26T18:49:05;1.40;73.40
2441;DHT22;1231;53.988;9.470;2023-02-26T18:51:56;1.30;73.70
2441;DHT22;1231;53.988;9.470;2023-02-26T18:54:48;1.30;74.00
2441;DHT22;1231;53.988;9.470;2023-02-26T18:57:40;1.20;74.20
2441;DHT22;1231;53.988;9.470;2023-02-26T19:00:32;1.20;74.30
2441;DHT22;1231;53.988;9.470;2023-02-26T19:03:23;1.10;74.40
2441;DHT22;1231;53.988;9.470;2023-02-26T19:06:14;1.10;74.50
2441;DHT22;1231;53.988;9.470;2023-02-26T19:09:05;1.00;74.70
2441;DHT22;1231;53.988;9.470;2023-02-26T19:11:56;1.00;74.80
2441;DHT22;1231;53.988;9.470;2023-02-26T19:14:48;1.00;75.00
2441;DHT22;1231;53.988;9.470;2023-02-26T19:17:39;0.90;75.20
2441;DHT22;1231;53.988;9.470;2023-02-26T19:20:31;0.90;75.50
2441;DHT22;1231;53.988;9.470;2023-02-26T19:23:22;0.90;75.70
2441;DHT22;1231;53.988;9.470;2023-02-26T19:26:13;0.80;75.80
2441;DHT22;1231;53.988;9.470;2023-02-26T19:29:06;0.80;75.90
2441;DHT22;1231;53.988;9.470;2023-02-26T19:31:57;0.80;76.20
2441;DHT22;1231;53.988;9.470;2023-02-26T19:34:48;0.70;76.30
2441;DHT22;1231;53.988;9.470;2023-02-26T19:37:39;0.70;76.40
2441;DHT22;1231;53.988;9.470;2023-02-26T19:40:29;0.70;76.40
2441;DHT22;1231;53.988;9.470;2023-02-26T19:43:20;0.70;76.50
2441;DHT22;1231;53.988;9.470;2023-02-26T19:46:14;0.60;76.60
2441;DHT22;1231;53.988;9.470;2023-02-26T19:49:05;0.60;76.60
2441;DHT22;1231;53.988;9.470;2023-02-26T19:51:56;0.60;76.70
2441;DHT22;1231;53.988;9.470;2023-02-26T19:54:47;0.50;76.80
2441;DHT22;1231;53.988;9.470;2023-02-26T19:57:38;0.50;77.10
2441;DHT22;1231;53.988;9.470;2023-02-26T20:00:29;0.50;77.30
2441;DHT22;1231;53.988;9.470;2023-02-26T20:03:20;0.50;77.50
2441;DHT22;1231;53.988;9.470;2023-02-26T20:06:11;0.50;77.80
2441;DHT22;1231;53.988;9.470;2023-02-26T20:09:03;0.50;78.00
2441;DHT22;1231;53.988;9.470;2023-02-26T20:11:53;0.50;78.10
2441;DHT22;1231;53.988;9.470;2023-02-26T20:14:44;0.50;78.20
2441;DHT22;1231;53.988;9.470;2023-02-26T20:17:35;0.40;78.10
2441;DHT22;1231;53.988;9.470;2023-02-26T20:20:27;0.40;78.00
2441;DHT22;1231;53.988;9.470;2023-02-26T20:23:18;0.40;78.10
2441;DHT22;1231;53.988;9.470;2023-02-26T20:26:11;0.40;78.20
2441;DHT22;1231;53.988;9.470;2023-02-26T20:29:03;0.30;78.20
2441;DHT22;1231;53.988;9.470;2023-02-26T20:31:53;0.30;78.20
2441;DHT22;1231;53.988;9.470;2023-02-26T20:34:44;0.30;78.10
2441;DHT22;1231;53.988;9.470;2023-02-26T20:37:35;0.20;78.10
2441;DHT22;1231;53.988;9.470;2023-02-26T20:40:26;0.20;78.10
2441;DHT22;1231;53.988;9.470;2023-02-26T20:43:17;0.10;78.20
2441;DHT22;1231;53.988;9.470;2023-02-26T20:46:08;0.10;78.50
2441;DHT22;1231;53.988;9.470;2023-02-26T20:48:59;0.10;78.80
2441;DHT22;1231;53.988;9.470;2023-02-26T20:51:51;0.10;78.90
2441;DHT22;1231;53.988;9.470;2023-02-26T20:54:42;0.10;79.00
2441;DHT22;1231;53.988;9.470;2023-02-26T20:57:34;0.10;79.10
2441;DHT22;1231;53.988;9.470;2023-02-26T21:00:26;0.00;79.30
2441;DHT22;1231;53.988;9.470;2023-02-26T21:03:17;0.00;79.30
2441;DHT22;1231;53.988;9.470;2023-02-26T21:06:08;0.00;79.30
2441;DHT22;1231;53.988;9.470;2023-02-26T21:09:01;0.00;79.30
2441;DHT22;1231;53.988;9.470;2023-02-26T21:11:52;-0.10;79.20
2441;DHT22;1231;53.988;9.470;2023-02-26T21:14:43;-0.10;79.40
2441;DHT22;1231;53.988;9.470;2023-02-26T21:17:34;-0.10;79.60